Time;durP1;ratioP1;P1;durP2;ratioP2;P2;SDS_P1;SDS_P2;PMS_P1;PMS_P2;Temp;Humidity;BMP_temperature;BMP_pressure;BME280_temperature;BME280_humidity;BME280_pressure;Samples;Min_cycle;Max_cycle;Signal;HPM_P1;HPM_P2
2024/03/24 00:01:02;;;;;;;56.33;29.20;;;;;;;;;;4344181;32;318973;-75
2024/03/24 00:03:32;;;;;;;60.37;34.07;;;;;;;;;;4347500;32;317392;-76
2024/03/24 00:05:59;;;;;;;49.70;30.03;;;;;;;;;;4332404;32;319352;-74
2024/03/24 00:08:27;;;;;;;50.63;29.33;;;;;;;;;;4350374;32;354531;-75
2024/03/24 00:10:57;;;;;;;56.57;27.87;;;;;;;;;;4333092;32;344806;-76
2024/03/24 00:13:27;;;;;;;47.50;27.77;;;;;;;;;;4341904;32;318577;-74
2024/03/24 00:15:56;;;;;;;45.57;27.30;;;;;;;;;;4338592;32;319139;-74
2024/03/24 00:18:22;;;;;;;46.13;26.63;;;;;;;;;;4350067;32;317952;-75
2024/03/24 00:20:49;;;;;;;37.67;23.17;;;;;;;;;;4347115;32;317890;-76
2024/03/24 00:23:19;;;;;;;37.60;20.50;;;;;;;;;;4360260;32;317148;-75
2024/03/24 00:25:44;;;;;;;35.10;20.80;;;;;;;;;;4360644;32;317438;-75
2024/03/24 00:28:14;;;;;;;36.97;19.43;;;;;;;;;;4342324;32;334554;-75
2024/03/24 00:30:41;;;;;;;34.17;18.77;;;;;;;;;;4354097;32;317551;-76
2024/03/24 00:33:09;;;;;;;37.77;20.77;;;;;;;;;;4340131;32;319605;-76
2024/03/24 00:35:36;;;;;;;40.87;23.17;;;;;;;;;;4350874;32;317907;-76
2024/03/24 00:38:04;;;;;;;35.67;22.27;;;;;;;;;;4320222;32;317750;-76
2024/03/24 00:40:30;;;;;;;48.17;22.47;;;;;;;;;;4353717;32;318787;-76
2024/03/24 00:43:00;;;;;;;48.17;25.67;;;;;;;;;;4333510;32;318731;-76
2024/03/24 00:45:38;;;;;;;42.60;23.20;;;;;;;;;;4342060;32;317916;-76
2024/03/24 00:48:08;;;;;;;51.90;26.60;;;;;;;;;;4337384;32;319200;-79
2024/03/24 00:50:37;;;;;;;50.17;29.10;;;;;;;;;;4346939;32;318686;-76
2024/03/24 00:53:05;;;;;;;43.93;23.50;;;;;;;;;;4346141;32;318967;-76
2024/03/24 00:55:33;;;;;;;28.70;16.83;;;;;;;;;;4350680;32;317337;-76
2024/03/24 00:58:07;;;;;;;33.17;20.23;;;;;;;;;;4324548;32;319069;-77
2024/03/24 01:00:36;;;;;;;33.57;15.40;;;;;;;;;;4342426;32;318625;-76
2024/03/24 01:03:07;;;;;;;30.57;17.33;;;;;;;;;;4330477;32;317465;-76
2024/03/24 01:05:33;;;;;;;42.60;24.67;;;;;;;;;;4350200;32;317411;-76
2024/03/24 01:08:02;;;;;;;55.03;29.83;;;;;;;;;;4335786;32;318963;-76
2024/03/24 01:10:29;;;;;;;53.67;28.50;;;;;;;;;;4346609;32;318604;-76
2024/03/24 01:12:59;;;;;;;68.63;37.70;;;;;;;;;;4346842;32;339949;-76
2024/03/24 01:15:25;;;;;;;59.87;33.10;;;;;;;;;;4340692;32;318779;-77
2024/03/24 01:17:53;;;;;;;54.10;30.20;;;;;;;;;;4336543;32;319155;-76
2024/03/24 01:20:18;;;;;;;57.83;33.73;;;;;;;;;;4340787;32;319356;-76
2024/03/24 01:22:46;;;;;;;70.03;38.23;;;;;;;;;;4348052;32;318997;-76
2024/03/24 01:25:12;;;;;;;74.50;38.57;;;;;;;;;;4336369;32;418662;-77
2024/03/24 01:27:39;;;;;;;54.47;29.23;;;;;;;;;;4349530;32;318557;-75
2024/03/24 01:30:05;;;;;;;37.70;19.43;;;;;;;;;;4331232;32;331556;-75
2024/03/24 01:32:32;;;;;;;29.10;18.20;;;;;;;;;;4348816;32;319392;-75
2024/03/24 01:34:59;;;;;;;21.53;15.20;;;;;;;;;;4339801;32;319403;-75
2024/03/24 01:37:26;;;;;;;27.63;15.77;;;;;;;;;;4349516;32;318554;-75
2024/03/24 01:39:51;;;;;;;24.50;14.60;;;;;;;;;;4337810;32;318505;-75
2024/03/24 01:42:18;;;;;;;22.53;13.47;;;;;;;;;;4342648;32;318686;-76
2024/03/24 01:44:44;;;;;;;23.60;13.17;;;;;;;;;;4348496;32;318982;-76
2024/03/24 01:47:11;;;;;;;20.70;12.60;;;;;;;;;;4339286;32;319207;-76
2024/03/24 01:49:37;;;;;;;19.00;12.17;;;;;;;;;;4347428;32;319556;-76
2024/03/24 01:52:08;;;;;;;21.63;13.30;;;;;;;;;;4331666;32;320114;-76
2024/03/24 01:54:34;;;;;;;23.03;12.37;;;;;;;;;;4347047;32;318812;-76
2024/03/24 01:57:01;;;;;;;25.67;14.00;;;;;;;;;;4336152;32;318967;-76
2024/03/24 01:59:27;;;;;;;24.43;13.73;;;;;;;;;;4348339;32;319232;-76
2024/03/24 02:01:53;;;;;;;24.07;14.17;;;;;;;;;;4338400;32;319042;-76
2024/03/24 02:04:19;;;;;;;19.17;11.70;;;;;;;;;;4342995;32;319338;-76
2024/03/24 02:06:46;;;;;;;21.07;11.67;;;;;;;;;;4348490;32;319164;-77
2024/03/24 02:09:13;;;;;;;15.60;11.23;;;;;;;;;;4334210;32;420082;-75
2024/03/24 02:11:39;;;;;;;21.00;12.23;;;;;;;;;;4346991;32;319284;-75
2024/03/24 02:14:05;;;;;;;20.45;11.77;;;;;;;;;;4330868;32;319331;-75
2024/03/24 02:16:32;;;;;;;19.17;11.77;;;;;;;;;;4346927;32;353802;-75
2024/03/24 02:18:58;;;;;;;19.53;11.73;;;;;;;;;;4338366;32;319255;-75
2024/03/24 02:21:26;;;;;;;21.37;11.60;;;;;;;;;;4347816;32;319104;-75
2024/03/24 02:23:53;;;;;;;21.07;11.80;;;;;;;;;;4337317;32;318780;-75
2024/03/24 02:26:19;;;;;;;20.27;11.87;;;;;;;;;;4335184;32;319362;-75
2024/03/24 02:28:45;;;;;;;22.23;11.93;;;;;;;;;;4332086;32;319189;-75
2024/03/24 02:31:12;;;;;;;18.30;11.07;;;;;;;;;;4326689;32;374404;-76
2024/03/24 02:33:38;;;;;;;23.00;12.53;;;;;;;;;;4350747;32;319324;-77
2024/03/24 02:36:06;;;;;;;24.47;13.97;;;;;;;;;;4335260;32;319128;-76
2024/03/24 02:38:31;;;;;;;17.57;12.47;;;;;;;;;;4350579;32;319012;-76
2024/03/24 02:40:59;;;;;;;27.67;13.87;;;;;;;;;;4340283;32;319403;-76
2024/03/24 02:43:25;;;;;;;18.97;12.80;;;;;;;;;;4350686;32;319156;-76
2024/03/24 02:45:56;;;;;;;19.67;12.00;;;;;;;;;;4342029;32;318731;-76
2024/03/24 02:48:22;;;;;;;21.17;12.27;;;;;;;;;;4348623;32;318468;-76
2024/03/24 02:50:49;;;;;;;25.70;12.67;;;;;;;;;;4341469;32;318458;-75
2024/03/24 02:53:14;;;;;;;24.57;10.70;;;;;;;;;;4347948;32;319334;-76
2024/03/24 02:55:45;;;;;;;21.87;11.97;;;;;;;;;;4350040;32;319214;-76
2024/03/24 02:58:13;;;;;;;18.87;10.63;;;;;;;;;;4330882;32;418233;-77
2024/03/24 03:00:40;;;;;;;29.13;15.33;;;;;;;;;;4351608;32;319177;-76
2024/03/24 03:03:06;;;;;;;30.97;17.67;;;;;;;;;;4340764;32;319253;-76
2024/03/24 03:05:33;;;;;;;23.97;12.50;;;;;;;;;;4350825;32;319062;-76
2024/03/24 03:07:59;;;;;;;22.70;12.73;;;;;;;;;;4334282;32;319180;-76
2024/03/24 03:10:26;;;;;;;22.60;14.47;;;;;;;;;;4350670;32;318528;-76
2024/03/24 03:12:51;;;;;;;25.17;14.33;;;;;;;;;;4339373;32;319286;-76
2024/03/24 03:15:21;;;;;;;28.87;15.77;;;;;;;;;;4349300;32;319079;-76
2024/03/24 03:17:46;;;;;;;30.33;17.17;;;;;;;;;;4338133;32;319117;-76
2024/03/24 03:20:13;;;;;;;33.83;17.53;;;;;;;;;;4341891;32;335983;-76
2024/03/24 03:22:40;;;;;;;33.27;16.90;;;;;;;;;;4350482;32;319134;-76
2024/03/24 03:25:08;;;;;;;33.07;18.67;;;;;;;;;;4338469;32;337813;-76
2024/03/24 03:27:33;;;;;;;34.57;17.90;;;;;;;;;;4336301;32;319502;-76
2024/03/24 03:30:00;;;;;;;30.47;18.17;;;;;;;;;;4317633;32;333982;-76
2024/03/24 03:32:27;;;;;;;35.37;19.97;;;;;;;;;;4334541;32;319446;-76
2024/03/24 03:34:54;;;;;;;35.37;21.80;;;;;;;;;;4325440;32;318964;-76
2024/03/24 03:37:21;;;;;;;46.60;23.03;;;;;;;;;;4333819;32;318819;-76
2024/03/24 03:39:48;;;;;;;35.97;20.80;;;;;;;;;;4320478;32;348945;-76
2024/03/24 03:42:14;;;;;;;31.20;19.37;;;;;;;;;;4328607;32;319158;-76
2024/03/24 03:44:42;;;;;;;30.47;17.30;;;;;;;;;;4334946;32;319321;-76
2024/03/24 03:47:08;;;;;;;28.37;17.00;;;;;;;;;;4326195;32;319081;-76
2024/03/24 03:49:36;;;;;;;40.90;18.90;;;;;;;;;;4336722;32;319318;-76
2024/03/24 03:52:02;;;;;;;35.10;18.57;;;;;;;;;;4332362;32;319260;-76
2024/03/24 03:54:31;;;;;;;28.57;18.20;;;;;;;;;;4347925;32;319082;-76
2024/03/24 03:56:57;;;;;;;36.10;18.93;;;;;;;;;;4339038;32;319243;-76
2024/03/24 03:59:24;;;;;;;35.93;17.90;;;;;;;;;;4348042;32;319320;-76
2024/03/24 04:01:50;;;;;;;37.53;19.73;;;;;;;;;;4339907;32;319409;-76
2024/03/24 04:04:16;;;;;;;36.97;20.17;;;;;;;;;;4342459;32;319232;-76
2024/03/24 04:06:43;;;;;;;50.57;23.13;;;;;;;;;;4350072;32;319279;-76
2024/03/24 04:09:16;;;;;;;50.23;24.60;;;;;;;;;;4339867;32;319252;-76
2024/03/24 04:11:41;;;;;;;45.20;21.57;;;;;;;;;;4348490;32;359938;-76
2024/03/24 04:14:08;;;;;;;38.03;21.77;;;;;;;;;;4331753;32;329727;-76
2024/03/24 04:16:34;;;;;;;37.67;20.37;;;;;;;;;;4349731;32;317759;-76
2024/03/24 04:19:01;;;;;;;37.80;19.40;;;;;;;;;;4339121;32;319354;-76
2024/03/24 04:21:26;;;;;;;39.47;20.57;;;;;;;;;;4349476;32;318210;-76
2024/03/24 04:23:54;;;;;;;33.40;18.60;;;;;;;;;;4339225;32;334711;-74
2024/03/24 04:26:20;;;;;;;40.53;20.07;;;;;;;;;;4339915;32;318464;-76
2024/03/24 04:28:47;;;;;;;31.07;16.90;;;;;;;;;;4327619;32;318423;-75
2024/03/24 04:31:13;;;;;;;34.07;18.37;;;;;;;;;;4333816;32;318536;-76
2024/03/24 04:33:39;;;;;;;38.73;20.47;;;;;;;;;;4333461;32;318256;-75
2024/03/24 04:36:05;;;;;;;39.40;21.40;;;;;;;;;;4318811;32;318530;-76
2024/03/24 04:38:32;;;;;;;36.00;20.33;;;;;;;;;;4333667;32;317882;-75
2024/03/24 04:41:00;;;;;;;48.20;26.03;;;;;;;;;;4324615;32;318523;-75
2024/03/24 04:43:28;;;;;;;55.87;29.13;;;;;;;;;;4333547;32;317516;-75
2024/03/24 04:45:54;;;;;;;38.60;22.17;;;;;;;;;;4328454;32;318370;-76
2024/03/24 04:48:22;;;;;;;45.63;19.83;;;;;;;;;;4344675;32;318495;-75
2024/03/24 04:50:48;;;;;;;37.00;21.03;;;;;;;;;;4339594;32;318274;-75
2024/03/24 04:53:15;;;;;;;37.67;20.60;;;;;;;;;;4346568;32;317556;-75
2024/03/24 04:55:41;;;;;;;42.73;25.43;;;;;;;;;;4348236;32;319033;-75
2024/03/24 04:58:09;;;;;;;42.90;26.27;;;;;;;;;;4331846;32;318217;-75
2024/03/24 05:00:35;;;;;;;47.97;24.87;;;;;;;;;;4347811;32;318281;-75
2024/03/24 05:03:01;;;;;;;55.23;30.90;;;;;;;;;;4338080;32;317586;-75
2024/03/24 05:05:27;;;;;;;45.70;28.37;;;;;;;;;;4349585;32;318360;-75
2024/03/24 05:07:54;;;;;;;33.37;20.60;;;;;;;;;;4338867;32;318241;-76
2024/03/24 05:10:19;;;;;;;33.93;19.30;;;;;;;;;;4343570;32;325706;-75
2024/03/24 05:12:47;;;;;;;34.03;22.00;;;;;;;;;;4348479;32;317589;-75
2024/03/24 05:15:14;;;;;;;31.50;20.57;;;;;;;;;;4335079;32;417649;-75
2024/03/24 05:17:42;;;;;;;38.00;23.17;;;;;;;;;;4348810;32;317659;-75
2024/03/24 05:20:09;;;;;;;39.33;21.97;;;;;;;;;;4332640;32;318825;-75
2024/03/24 05:22:36;;;;;;;34.03;21.17;;;;;;;;;;4347851;32;317472;-76
2024/03/24 05:25:03;;;;;;;27.17;15.50;;;;;;;;;;4337828;32;318390;-75
2024/03/24 05:27:30;;;;;;;40.70;23.50;;;;;;;;;;4335999;32;318165;-75
2024/03/24 05:29:56;;;;;;;36.87;23.07;;;;;;;;;;4320006;32;317828;-76
2024/03/24 05:32:24;;;;;;;40.03;23.67;;;;;;;;;;4331423;32;318234;-76
2024/03/24 05:34:50;;;;;;;34.43;22.13;;;;;;;;;;4324002;32;318506;-75
2024/03/24 05:37:16;;;;;;;43.67;26.47;;;;;;;;;;4332623;32;318107;-75
2024/03/24 05:39:42;;;;;;;44.27;22.47;;;;;;;;;;4331881;32;318522;-75
2024/03/24 05:42:10;;;;;;;37.33;20.00;;;;;;;;;;4318406;32;318195;-75
2024/03/24 05:44:35;;;;;;;32.77;19.60;;;;;;;;;;4348256;32;318379;-74
2024/03/24 05:47:02;;;;;;;37.27;21.17;;;;;;;;;;4338810;32;319260;-74
2024/03/24 05:49:29;;;;;;;33.83;20.87;;;;;;;;;;4347892;32;318359;-74
2024/03/24 05:51:57;;;;;;;34.00;20.80;;;;;;;;;;4336337;32;319847;-74
2024/03/24 05:54:23;;;;;;;33.63;20.40;;;;;;;;;;4348343;32;319162;-75
2024/03/24 05:56:50;;;;;;;33.90;19.90;;;;;;;;;;4338575;32;319800;-75
2024/03/24 05:59:16;;;;;;;33.50;19.70;;;;;;;;;;4346792;32;319364;-75
2024/03/24 06:01:42;;;;;;;31.67;17.77;;;;;;;;;;4347246;32;319089;-75
2024/03/24 06:04:08;;;;;;;26.77;16.10;;;;;;;;;;4331846;32;319486;-75
2024/03/24 06:06:36;;;;;;;34.97;19.07;;;;;;;;;;4346643;32;318548;-75
2024/03/24 06:09:02;;;;;;;41.27;19.83;;;;;;;;;;4338453;32;319135;-75
2024/03/24 06:11:29;;;;;;;44.63;20.73;;;;;;;;;;4348505;32;319465;-75
2024/03/24 06:13:54;;;;;;;35.07;20.70;;;;;;;;;;4336212;32;358488;-76
2024/03/24 06:16:21;;;;;;;32.80;20.47;;;;;;;;;;4343038;32;339183;-76
2024/03/24 06:18:47;;;;;;;37.90;21.93;;;;;;;;;;4336183;32;319505;-75
2024/03/24 06:21:13;;;;;;;42.10;22.23;;;;;;;;;;4347004;32;319535;-76
2024/03/24 06:23:41;;;;;;;42.23;21.43;;;;;;;;;;4347928;32;319709;-76
2024/03/24 06:26:08;;;;;;;33.90;21.90;;;;;;;;;;4328570;32;320092;-75
2024/03/24 06:28:34;;;;;;;36.93;21.07;;;;;;;;;;4332834;32;319178;-76
2024/03/24 06:31:01;;;;;;;26.17;18.67;;;;;;;;;;4324103;32;319600;-75
2024/03/24 06:33:26;;;;;;;20.20;14.63;;;;;;;;;;4333403;32;319239;-75
2024/03/24 06:35:53;;;;;;;24.43;13.80;;;;;;;;;;4323302;32;334041;-76
2024/03/24 06:38:19;;;;;;;18.17;11.80;;;;;;;;;;4324221;32;319187;-76
2024/03/24 06:40:47;;;;;;;21.63;11.60;;;;;;;;;;4347030;32;319479;-75
2024/03/24 06:43:19;;;;;;;22.37;12.27;;;;;;;;;;4334996;32;418163;-75
2024/03/24 06:45:48;;;;;;;25.67;14.87;;;;;;;;;;4347321;32;319272;-75
2024/03/24 06:48:14;;;;;;;15.10;11.17;;;;;;;;;;4329037;32;420069;-75
2024/03/24 06:50:41;;;;;;;15.57;10.63;;;;;;;;;;4347904;32;319562;-75
2024/03/24 06:53:07;;;;;;;23.33;11.27;;;;;;;;;;4336342;32;319294;-76
2024/03/24 06:55:33;;;;;;;21.37;11.70;;;;;;;;;;4347320;32;318946;-75
2024/03/24 06:58:00;;;;;;;15.70;10.57;;;;;;;;;;4331317;32;319436;-75
2024/03/24 07:00:28;;;;;;;17.83;10.73;;;;;;;;;;4347791;32;319367;-75
2024/03/24 07:02:54;;;;;;;20.50;11.17;;;;;;;;;;4338326;32;319138;-75
2024/03/24 07:05:20;;;;;;;20.33;11.97;;;;;;;;;;4348121;32;319180;-75
2024/03/24 07:07:49;;;;;;;17.47;11.83;;;;;;;;;;4338540;32;319363;-75
2024/03/24 07:10:14;;;;;;;17.60;10.50;;;;;;;;;;4342053;32;318588;-75
2024/03/24 07:12:41;;;;;;;19.90;11.37;;;;;;;;;;4346944;32;320057;-76
2024/03/24 07:15:09;;;;;;;16.27;12.17;;;;;;;;;;4336477;32;319235;-75
2024/03/24 07:17:36;;;;;;;17.87;10.90;;;;;;;;;;4349075;32;319073;-75
2024/03/24 07:20:04;;;;;;;14.50;10.93;;;;;;;;;;4334166;32;319322;-76
2024/03/24 07:22:30;;;;;;;16.30;9.73;;;;;;;;;;4348593;32;318435;-76
2024/03/24 07:24:57;;;;;;;14.13;9.67;;;;;;;;;;4339590;32;336207;-76
2024/03/24 07:27:23;;;;;;;19.83;10.37;;;;;;;;;;4337013;32;317352;-76
2024/03/24 07:29:49;;;;;;;15.20;10.73;;;;;;;;;;4323561;32;338502;-76
2024/03/24 07:32:17;;;;;;;19.67;10.70;;;;;;;;;;4327871;32;319306;-76
2024/03/24 07:34:44;;;;;;;35.70;24.23;;;;;;;;;;4338308;32;319164;-76
2024/03/24 07:37:11;;;;;;;31.87;22.07;;;;;;;;;;4340170;32;319198;-76
2024/03/24 07:39:36;;;;;;;38.83;30.70;;;;;;;;;;4349977;32;319388;-76
2024/03/24 07:42:03;;;;;;;17.07;10.43;;;;;;;;;;4333497;32;318344;-76
2024/03/24 07:44:29;;;;;;;16.53;10.60;;;;;;;;;;4350048;32;319467;-76
2024/03/24 07:46:56;;;;;;;17.80;10.50;;;;;;;;;;4338371;32;318469;-76
2024/03/24 07:49:23;;;;;;;16.60;10.37;;;;;;;;;;4350183;32;318970;-76
2024/03/24 07:51:50;;;;;;;14.60;10.23;;;;;;;;;;4340244;32;319077;-76
2024/03/24 07:54:15;;;;;;;14.93;10.03;;;;;;;;;;4341859;32;319088;-76
2024/03/24 07:56:42;;;;;;;18.30;11.27;;;;;;;;;;4348961;32;318557;-76
2024/03/24 07:59:08;;;;;;;18.27;11.80;;;;;;;;;;4340034;32;319184;-77
2024/03/24 08:01:34;;;;;;;16.70;11.57;;;;;;;;;;4349849;32;318433;-74
2024/03/24 08:04:01;;;;;;;18.83;12.57;;;;;;;;;;4333977;32;319205;-75
2024/03/24 08:06:29;;;;;;;23.37;12.30;;;;;;;;;;4349867;32;319341;-76
2024/03/24 08:08:55;;;;;;;19.37;12.83;;;;;;;;;;4339443;32;319240;-77
2024/03/24 08:11:21;;;;;;;20.20;11.73;;;;;;;;;;4349663;32;318611;-78
2024/03/24 08:13:48;;;;;;;19.10;12.23;;;;;;;;;;4338789;32;319276;-76
2024/03/24 08:16:14;;;;;;;25.57;12.80;;;;;;;;;;4341601;32;318473;-76
2024/03/24 08:18:40;;;;;;;18.80;12.13;;;;;;;;;;4349811;32;320019;-76
2024/03/24 08:21:07;;;;;;;16.70;12.67;;;;;;;;;;4339781;32;319605;-76
2024/03/24 08:23:34;;;;;;;23.40;12.63;;;;;;;;;;4349323;32;319396;-76
2024/03/24 08:26:01;;;;;;;17.30;10.67;;;;;;;;;;4332823;32;319179;-75
2024/03/24 08:28:26;;;;;;;14.03;9.50;;;;;;;;;;4342067;32;319340;-75
2024/03/24 08:30:53;;;;;;;14.07;9.07;;;;;;;;;;4327131;32;317547;-76
2024/03/24 08:33:19;;;;;;;15.40;7.00;;;;;;;;;;4349282;32;318163;-76
2024/03/24 08:35:47;;;;;;;15.57;8.53;;;;;;;;;;4348479;32;319084;-75
2024/03/24 08:38:12;;;;;;;18.33;9.33;;;;;;;;;;4332709;32;318132;-75
2024/03/24 08:40:40;;;;;;;9.33;7.00;;;;;;;;;;4348423;32;318585;-75
2024/03/24 08:43:06;;;;;;;13.38;7.95;;;;;;;;;;4339011;32;317161;-75
2024/03/24 08:45:33;;;;;;;11.60;7.15;;;;;;;;;;4349764;32;318050;-75
2024/03/24 08:47:58;;;;;;;14.00;6.00;;;;;;;;;;4332844;32;318230;-75
2024/03/24 08:50:25;;;;;;;10.88;6.95;;;;;;;;;;4349712;32;318360;-76
2024/03/24 08:52:51;;;;;;;10.70;7.53;;;;;;;;;;4338983;32;318371;-76
2024/03/24 08:55:17;;;;;;;9.32;6.80;;;;;;;;;;4346987;32;318287;-76
2024/03/24 08:57:44;;;;;;;9.03;5.87;;;;;;;;;;4349177;32;317359;-76
2024/03/24 09:00:12;;;;;;;11.50;6.62;;;;;;;;;;4333257;32;317082;-76
2024/03/24 09:02:38;;;;;;;10.20;6.03;;;;;;;;;;4348349;32;318243;-76
2024/03/24 09:05:06;;;;;;;9.75;5.93;;;;;;;;;;4339626;32;318031;-76
2024/03/24 09:07:31;;;;;;;7.12;5.30;;;;;;;;;;4347764;32;317213;-77
2024/03/24 09:09:59;;;;;;;8.65;5.05;;;;;;;;;;4331819;32;347395;-76
2024/03/24 09:12:24;;;;;;;19.62;5.87;;;;;;;;;;4347248;32;317345;-76
2024/03/24 09:14:53;;;;;;;11.75;6.55;;;;;;;;;;4315283;32;341372;-76
2024/03/24 09:17:19;;;;;;;17.40;6.62;;;;;;;;;;4349282;32;318454;-76
2024/03/24 09:19:46;;;;;;;12.52;7.22;;;;;;;;;;4346969;32;318418;-76
2024/03/24 09:22:11;;;;;;;9.20;5.32;;;;;;;;;;4333077;32;318107;-77
2024/03/24 09:24:38;;;;;;;13.75;6.40;;;;;;;;;;4349530;32;317302;-78
2024/03/24 09:27:06;;;;;;;9.02;4.90;;;;;;;;;;4337562;32;318610;-77
2024/03/24 09:29:32;;;;;;;10.02;5.80;;;;;;;;;;4350291;32;316935;-77
2024/03/24 09:32:02;;;;;;;9.68;6.12;;;;;;;;;;4334186;32;317616;-77
2024/03/24 09:34:29;;;;;;;8.55;5.25;;;;;;;;;;4348548;32;316516;-77
2024/03/24 09:36:55;;;;;;;6.72;5.18;;;;;;;;;;4317379;32;317193;-77
2024/03/24 09:39:21;;;;;;;7.90;5.25;;;;;;;;;;4347710;32;316864;-77
2024/03/24 09:41:47;;;;;;;17.95;6.35;;;;;;;;;;4348857;32;317319;-77
2024/03/24 09:44:15;;;;;;;11.07;5.75;;;;;;;;;;4329590;32;418008;-77
2024/03/24 09:46:42;;;;;;;8.88;6.15;;;;;;;;;;4347930;32;318427;-76
2024/03/24 09:49:13;;;;;;;9.75;5.18;;;;;;;;;;4337645;32;317004;-76
2024/03/24 09:51:39;;;;;;;11.18;5.93;;;;;;;;;;4348027;32;317330;-76
2024/03/24 09:54:10;;;;;;;9.77;5.22;;;;;;;;;;4331181;32;318258;-77
2024/03/24 09:56:37;;;;;;;10.48;5.05;;;;;;;;;;4348558;32;317272;-77
2024/03/24 09:59:04;;;;;;;7.50;5.00;;;;;;;;;;4337992;32;318189;-77
2024/03/24 10:01:31;;;;;;;8.20;5.45;;;;;;;;;;4347548;32;316555;-76
2024/03/24 10:04:00;;;;;;;12.88;5.22;;;;;;;;;;4335089;32;317425;-77
2024/03/24 10:06:28;;;;;;;8.63;5.25;;;;;;;;;;4348016;32;318336;-76
2024/03/24 10:08:55;;;;;;;8.40;4.68;;;;;;;;;;4338170;32;316406;-77
2024/03/24 10:11:25;;;;;;;6.90;4.45;;;;;;;;;;4348334;32;316514;-77
2024/03/24 10:13:52;;;;;;;9.70;5.87;;;;;;;;;;4335430;32;322016;-77
2024/03/24 10:16:17;;;;;;;6.97;4.50;;;;;;;;;;4341935;32;328516;-77
2024/03/24 10:18:44;;;;;;;6.43;4.53;;;;;;;;;;4348820;32;317201;-78
2024/03/24 10:21:10;;;;;;;8.73;5.28;;;;;;;;;;4338476;32;317235;-77
2024/03/24 10:23:38;;;;;;;9.27;3.85;;;;;;;;;;4346969;32;317260;-77
2024/03/24 10:26:04;;;;;;;11.12;3.65;;;;;;;;;;4333186;32;317225;-77
2024/03/24 10:28:31;;;;;;;6.15;3.28;;;;;;;;;;4348732;32;318190;-77
2024/03/24 10:31:04;;;;;;;11.67;2.77;;;;;;;;;;4337424;32;333267;-77
2024/03/24 10:33:32;;;;;;;6.82;2.85;;;;;;;;;;4346885;32;318301;-76
2024/03/24 10:35:59;;;;;;;4.12;2.90;;;;;;;;;;4332449;32;317173;-76
2024/03/24 10:38:25;;;;;;;8.73;3.42;;;;;;;;;;4348793;32;317300;-76
2024/03/24 10:40:57;;;;;;;9.40;3.12;;;;;;;;;;4337305;32;317013;-75
2024/03/24 10:43:24;;;;;;;6.57;3.80;;;;;;;;;;4349323;32;318750;-75
2024/03/24 10:45:51;;;;;;;5.28;3.55;;;;;;;;;;4338351;32;317082;-76
2024/03/24 10:48:22;;;;;;;7.12;4.22;;;;;;;;;;4340751;32;337372;-75
2024/03/24 10:50:53;;;;;;;5.78;3.90;;;;;;;;;;4348827;32;338183;-75
2024/03/24 10:53:22;;;;;;;8.35;3.33;;;;;;;;;;4338160;32;415423;-75
2024/03/24 10:55:50;;;;;;;8.38;3.65;;;;;;;;;;4351473;32;338593;-76
2024/03/24 10:58:20;;;;;;;8.25;4.15;;;;;;;;;;4334808;32;416797;-76
2024/03/24 11:00:46;;;;;;;5.47;3.45;;;;;;;;;;4361239;32;315005;-77
2024/03/24 11:03:14;;;;;;;5.65;3.33;;;;;;;;;;4355143;32;317478;-78
2024/03/24 11:05:43;;;;;;;5.68;3.30;;;;;;;;;;4364066;32;316746;-78
2024/03/24 11:08:13;;;;;;;4.57;3.00;;;;;;;;;;4347988;32;316319;-78
2024/03/24 11:10:41;;;;;;;5.03;3.60;;;;;;;;;;4352760;32;317353;-78
2024/03/24 11:13:09;;;;;;;9.05;3.53;;;;;;;;;;4345652;32;316660;-78
2024/03/24 11:15:36;;;;;;;5.75;2.55;;;;;;;;;;4350862;32;316397;-80
2024/03/24 11:18:17;;;;;;;7.20;3.42;;;;;;;;;;4333642;32;317078;-77
2024/03/24 11:20:43;;;;;;;7.15;2.95;;;;;;;;;;4351561;32;317269;-78
2024/03/24 11:23:17;;;;;;;4.55;2.53;;;;;;;;;;4340763;32;317016;-78
2024/03/24 11:25:42;;;;;;;8.45;3.05;;;;;;;;;;4349901;32;317341;-78
2024/03/24 11:28:09;;;;;;;6.68;2.55;;;;;;;;;;4334411;32;317222;-78
2024/03/24 11:30:36;;;;;;;8.43;3.45;;;;;;;;;;4351185;32;317481;-78
2024/03/24 11:33:03;;;;;;;5.47;3.30;;;;;;;;;;4338549;32;357129;-78
2024/03/24 11:35:29;;;;;;;3.83;3.30;;;;;;;;;;4352201;32;316882;-78
2024/03/24 11:37:58;;;;;;;9.95;3.50;;;;;;;;;;4344143;32;316524;-78
2024/03/24 11:40:25;;;;;;;5.62;3.22;;;;;;;;;;4353483;32;321950;-78
2024/03/24 11:42:53;;;;;;;4.93;2.85;;;;;;;;;;4339404;32;316525;-79
2024/03/24 11:45:26;;;;;;;5.28;3.15;;;;;;;;;;4337409;32;317620;-77
2024/03/24 11:48:28;;;;;;;6.93;3.42;;;;;;;;;;4326690;32;317634;-79
2024/03/24 11:50:54;;;;;;;3.37;2.80;;;;;;;;;;4324170;32;328630;-78
2024/03/24 11:53:22;;;;;;;6.03;3.92;;;;;;;;;;4335169;32;317130;-77
2024/03/24 11:55:48;;;;;;;5.18;3.17;;;;;;;;;;4336217;32;316577;-79
2024/03/24 11:58:15;;;;;;;4.65;3.42;;;;;;;;;;4317008;32;416673;-79
2024/03/24 12:00:41;;;;;;;7.00;2.85;;;;;;;;;;4336205;32;316605;-78
2024/03/24 12:03:09;;;;;;;11.98;2.70;;;;;;;;;;4325527;32;317526;-77
2024/03/24 12:05:35;;;;;;;8.05;2.72;;;;;;;;;;4336426;32;317666;-76
2024/03/24 12:08:01;;;;;;;6.62;2.55;;;;;;;;;;4319483;32;316960;-76
2024/03/24 12:10:28;;;;;;;4.68;2.22;;;;;;;;;;4333148;32;317284;-75
2024/03/24 12:12:55;;;;;;;17.40;2.87;;;;;;;;;;4323334;32;317163;-80
2024/03/24 12:15:20;;;;;;;26.87;3.53;;;;;;;;;;4334845;32;318075;-77
2024/03/24 12:17:47;;;;;;;3.72;2.42;;;;;;;;;;4348270;32;317537;-76
2024/03/24 12:20:14;;;;;;;6.87;3.03;;;;;;;;;;4329495;32;418508;-76
2024/03/24 12:22:41;;;;;;;6.93;3.00;;;;;;;;;;4347992;32;317738;-76
2024/03/24 12:25:09;;;;;;;7.28;2.12;;;;;;;;;;4337923;32;317085;-77
2024/03/24 12:27:37;;;;;;;5.35;3.05;;;;;;;;;;4348756;32;317533;-77
2024/03/24 12:30:03;;;;;;;3.62;2.67;;;;;;;;;;4332904;32;316549;-77
2024/03/24 12:32:30;;;;;;;13.05;2.95;;;;;;;;;;4349067;32;325306;-78
2024/03/24 12:34:57;;;;;;;4.30;3.30;;;;;;;;;;4337728;32;333255;-79
2024/03/24 12:37:26;;;;;;;4.82;2.87;;;;;;;;;;4347598;32;317203;-78
2024/03/24 12:39:51;;;;;;;4.35;3.00;;;;;;;;;;4339221;32;317352;-77
2024/03/24 12:42:18;;;;;;;8.15;3.28;;;;;;;;;;4343459;32;316986;-80
2024/03/24 12:44:44;;;;;;;6.05;3.03;;;;;;;;;;4348365;32;317302;-79
2024/03/24 12:47:11;;;;;;;9.55;2.42;;;;;;;;;;4338542;32;318117;-78
2024/03/24 12:49:37;;;;;;;4.25;2.83;;;;;;;;;;4346489;32;317588;-77
2024/03/24 12:52:06;;;;;;;9.63;2.67;;;;;;;;;;4331690;32;316910;-77
2024/03/24 12:54:33;;;;;;;5.72;2.65;;;;;;;;;;4348845;32;317569;-77
2024/03/24 12:57:00;;;;;;;6.87;2.60;;;;;;;;;;4337604;32;357726;-77
2024/03/24 12:59:26;;;;;;;3.70;2.12;;;;;;;;;;4347466;32;317040;-77
2024/03/24 13:01:53;;;;;;;2.95;2.37;;;;;;;;;;4337237;32;340527;-76
2024/03/24 13:04:20;;;;;;;4.07;2.83;;;;;;;;;;4338899;32;317682;-78
2024/03/24 13:06:53;;;;;;;5.10;3.22;;;;;;;;;;4347714;32;316345;-79
2024/03/24 13:09:20;;;;;;;10.40;2.70;;;;;;;;;;4335275;32;415005;-76
2024/03/24 13:11:48;;;;;;;4.97;3.97;;;;;;;;;;4347763;32;318491;-77
2024/03/24 13:14:14;;;;;;;7.32;3.17;;;;;;;;;;4329573;32;416182;-78
2024/03/24 13:16:46;;;;;;;4.15;2.35;;;;;;;;;;4348899;32;317255;-78
2024/03/24 13:19:18;;;;;;;5.82;3.10;;;;;;;;;;4339230;32;316816;-77
2024/03/24 13:21:49;;;;;;;3.70;2.62;;;;;;;;;;4347038;32;316615;-77
2024/03/24 13:24:20;;;;;;;3.42;2.58;;;;;;;;;;4329190;32;418043;-77
2024/03/24 13:26:50;;;;;;;10.50;3.17;;;;;;;;;;4347251;32;317347;-78
2024/03/24 13:29:16;;;;;;;6.85;3.28;;;;;;;;;;4334693;32;418372;-78
2024/03/24 13:31:43;;;;;;;7.37;3.08;;;;;;;;;;4347435;32;317601;-77
2024/03/24 13:34:10;;;;;;;5.30;2.58;;;;;;;;;;4332897;32;317029;-78
2024/03/24 13:36:45;;;;;;;4.93;3.40;;;;;;;;;;4347035;32;316785;-77
2024/03/24 13:39:19;;;;;;;8.80;3.12;;;;;;;;;;4339012;32;317391;-77
2024/03/24 13:41:57;;;;;;;3.53;2.80;;;;;;;;;;4347986;32;317050;-77
2024/03/24 13:44:33;;;;;;;5.00;2.90;;;;;;;;;;4334691;32;419108;-77
2024/03/24 13:47:11;;;;;;;5.57;3.03;;;;;;;;;;4337533;32;318371;-77
2024/03/24 13:49:37;;;;;;;5.93;2.78;;;;;;;;;;4346725;32;316430;-77
2024/03/24 13:52:06;;;;;;;5.45;3.00;;;;;;;;;;4330786;32;317346;-76
2024/03/24 13:54:35;;;;;;;5.85;2.70;;;;;;;;;;4346787;32;316483;-77
2024/03/24 13:57:03;;;;;;;3.78;2.53;;;;;;;;;;4336288;32;317015;-77
2024/03/24 13:59:28;;;;;;;6.43;3.40;;;;;;;;;;4348366;32;316882;-77
2024/03/24 14:01:56;;;;;;;6.75;3.47;;;;;;;;;;4339657;32;316910;-79
2024/03/24 14:04:22;;;;;;;5.60;3.35;;;;;;;;;;4347421;32;316511;-78
2024/03/24 14:06:48;;;;;;;5.80;2.00;;;;;;;;;;4346361;32;317184;-77
2024/03/24 14:09:14;;;;;;;8.15;4.00;;;;;;;;;;4324455;32;414373;-77
2024/03/24 14:11:41;;;;;;;6.20;4.30;;;;;;;;;;4330632;32;317401;-77
2024/03/24 14:14:28;;;;;;;7.05;4.35;;;;;;;;;;4315621;32;317148;-77